Time;durP1;ratioP1;P1;durP2;ratioP2;P2;SDS_P1;SDS_P2;PMS_P1;PMS_P2;Temp;Humidity;BMP_temperature;BMP_pressure;BME280_temperature;BME280_humidity;BME280_pressure;Samples;Min_cycle;Max_cycle;Signal;HPM_P1;HPM_P2
2022/07/13 00:01:19;;;;;;;18.17;11.77;;;;;;;;;;5012084;28;20032;-76
2022/07/13 00:03:45;;;;;;;16.33;10.90;;;;;;;;;;5012261;28;20034;-76
2022/07/13 00:06:11;;;;;;;17.08;11.93;;;;;;;;;;5011933;28;20026;-76
2022/07/13 00:08:37;;;;;;;17.48;11.82;;;;;;;;;;5012277;28;20113;-76
2022/07/13 00:11:03;;;;;;;15.85;11.73;;;;;;;;;;5027829;28;20105;-76
2022/07/13 00:13:29;;;;;;;15.23;11.27;;;;;;;;;;5031847;28;20114;-76
2022/07/13 00:15:55;;;;;;;15.68;11.43;;;;;;;;;;5031604;28;20104;-76
2022/07/13 00:18:21;;;;;;;16.23;10.95;;;;;;;;;;5017839;28;20396;-76
2022/07/13 00:20:47;;;;;;;16.33;12.15;;;;;;;;;;5011839;28;20029;-75
2022/07/13 00:23:13;;;;;;;13.48;10.55;;;;;;;;;;5012022;28;20457;-76
2022/07/13 00:25:39;;;;;;;19.38;11.73;;;;;;;;;;5011858;28;20033;-75
2022/07/13 00:28:05;;;;;;;14.35;10.95;;;;;;;;;;5011971;28;20029;-75
2022/07/13 00:30:31;;;;;;;14.27;10.93;;;;;;;;;;5011781;28;20028;-76
2022/07/13 00:32:57;;;;;;;16.42;10.70;;;;;;;;;;5011691;28;20473;-75
2022/07/13 00:35:23;;;;;;;14.93;10.48;;;;;;;;;;5011556;28;20045;-76
2022/07/13 00:37:49;;;;;;;19.65;11.73;;;;;;;;;;5011907;28;20026;-75
2022/07/13 00:40:15;;;;;;;12.02;10.07;;;;;;;;;;5015046;28;20022;-75
2022/07/13 00:42:41;;;;;;;15.13;10.43;;;;;;;;;;5014489;28;20022;-76
2022/07/13 00:45:08;;;;;;;13.55;10.18;;;;;;;;;;5015422;28;20036;-76
2022/07/13 00:47:34;;;;;;;15.10;9.70;;;;;;;;;;5015724;28;20022;-75
2022/07/13 00:50:01;;;;;;;15.60;10.57;;;;;;;;;;5015455;28;20040;-75
2022/07/13 00:52:28;;;;;;;17.95;10.38;;;;;;;;;;5015763;28;20109;-76
2022/07/13 00:54:54;;;;;;;13.68;10.30;;;;;;;;;;5015438;28;20032;-75
2022/07/13 00:57:21;;;;;;;14.70;9.98;;;;;;;;;;5015664;28;20034;-76
2022/07/13 00:59:47;;;;;;;13.15;10.60;;;;;;;;;;5015473;28;20532;-76
2022/07/13 01:02:13;;;;;;;16.70;9.73;;;;;;;;;;5015341;28;20483;-76
2022/07/13 01:04:39;;;;;;;14.30;9.75;;;;;;;;;;5015362;28;20038;-76
2022/07/13 01:07:05;;;;;;;14.10;9.68;;;;;;;;;;5015319;28;20095;-76
2022/07/13 01:09:32;;;;;;;13.45;9.45;;;;;;;;;;5018315;28;20356;-75
2022/07/13 01:11:59;;;;;;;12.63;9.38;;;;;;;;;;5033549;28;20088;-76
2022/07/13 01:14:25;;;;;;;14.55;9.55;;;;;;;;;;5034936;28;20072;-76
2022/07/13 01:16:51;;;;;;;11.65;8.90;;;;;;;;;;5034356;28;20503;-75
2022/07/13 01:19:18;;;;;;;11.55;9.38;;;;;;;;;;5015188;28;20028;-76
2022/07/13 01:21:45;;;;;;;11.73;8.75;;;;;;;;;;5014895;28;20049;-76
2022/07/13 01:24:12;;;;;;;11.02;8.15;;;;;;;;;;5015186;28;20422;-76
2022/07/13 01:26:39;;;;;;;8.88;7.13;;;;;;;;;;5014954;28;20022;-76
2022/07/13 01:29:05;;;;;;;12.20;8.25;;;;;;;;;;5015015;28;20141;-76
2022/07/13 01:31:34;;;;;;;14.48;8.77;;;;;;;;;;5014750;28;20026;-75
2022/07/13 01:34:00;;;;;;;12.25;8.32;;;;;;;;;;5014635;28;20056;-75
2022/07/13 01:36:27;;;;;;;11.50;8.10;;;;;;;;;;5014600;28;20049;-76
2022/07/13 01:38:53;;;;;;;9.18;7.63;;;;;;;;;;5014824;28;20018;-76
2022/07/13 01:41:19;;;;;;;11.95;7.32;;;;;;;;;;5014609;28;20030;-76
2022/07/13 01:43:47;;;;;;;10.35;7.10;;;;;;;;;;5014815;28;20037;-75
2022/07/13 01:46:13;;;;;;;10.07;7.35;;;;;;;;;;5014224;28;20049;-75
2022/07/13 01:48:39;;;;;;;8.73;7.10;;;;;;;;;;5014713;28;20025;-75
2022/07/13 01:51:05;;;;;;;8.85;7.32;;;;;;;;;;5014456;28;20034;-75
2022/07/13 01:53:31;;;;;;;8.93;6.70;;;;;;;;;;5014511;28;20036;-76
2022/07/13 01:55:57;;;;;;;10.35;7.32;;;;;;;;;;5014491;28;20025;-76
2022/07/13 01:58:23;;;;;;;10.60;6.65;;;;;;;;;;5014403;28;20102;-75
2022/07/13 02:00:49;;;;;;;10.63;7.00;;;;;;;;;;5014201;28;20048;-75
2022/07/13 02:03:15;;;;;;;9.02;6.40;;;;;;;;;;5014369;28;20385;-75
2022/07/13 02:05:41;;;;;;;9.45;7.28;;;;;;;;;;5014081;28;20030;-76
2022/07/13 02:08:07;;;;;;;10.88;7.35;;;;;;;;;;5014241;28;20018;-76
2022/07/13 02:10:36;;;;;;;9.55;7.20;;;;;;;;;;5025616;28;20029;-75
2022/07/13 02:13:05;;;;;;;7.93;6.70;;;;;;;;;;5033821;28;20383;-76
2022/07/13 02:15:32;;;;;;;8.85;6.70;;;;;;;;;;5033503;28;20026;-76
2022/07/13 02:17:58;;;;;;;11.70;7.15;;;;;;;;;;5022963;28;20387;-76
2022/07/13 02:20:24;;;;;;;9.25;6.38;;;;;;;;;;5013734;28;20101;-76
2022/07/13 02:22:50;;;;;;;8.35;6.85;;;;;;;;;;5014008;28;20021;-75
2022/07/13 02:25:16;;;;;;;8.77;6.97;;;;;;;;;;5013867;28;20083;-75
2022/07/13 02:27:43;;;;;;;9.45;6.60;;;;;;;;;;5013978;28;20026;-76
2022/07/13 02:30:10;;;;;;;9.48;6.30;;;;;;;;;;5012337;28;20360;-75
2022/07/13 02:32:36;;;;;;;8.75;6.38;;;;;;;;;;5013575;28;20049;-76
2022/07/13 02:35:02;;;;;;;9.93;6.28;;;;;;;;;;5012116;28;20026;-75
2022/07/13 02:37:28;;;;;;;16.92;6.97;;;;;;;;;;5013697;28;20092;-75
2022/07/13 02:39:56;;;;;;;11.15;6.93;;;;;;;;;;5013530;28;20026;-76
2022/07/13 02:42:22;;;;;;;8.85;6.43;;;;;;;;;;5013611;28;20419;-76
2022/07/13 02:44:49;;;;;;;9.48;6.93;;;;;;;;;;5013422;28;20156;-75
2022/07/13 02:47:15;;;;;;;10.32;6.80;;;;;;;;;;5013455;28;20030;-75
2022/07/13 02:49:41;;;;;;;9.85;6.20;;;;;;;;;;5013527;28;20026;-76
2022/07/13 02:52:07;;;;;;;9.90;7.10;;;;;;;;;;5013395;28;20026;-75
2022/07/13 02:54:33;;;;;;;10.07;7.55;;;;;;;;;;5013264;28;20042;-75
2022/07/13 02:56:59;;;;;;;12.82;7.32;;;;;;;;;;5013342;28;20129;-75
2022/07/13 02:59:25;;;;;;;10.80;7.20;;;;;;;;;;5013345;28;20049;-75
2022/07/13 03:01:51;;;;;;;14.55;7.35;;;;;;;;;;5012708;28;20030;-75
2022/07/13 03:04:17;;;;;;;7.72;6.30;;;;;;;;;;5013257;28;20030;-75
2022/07/13 03:06:44;;;;;;;11.77;6.50;;;;;;;;;;5013006;28;20096;-75
2022/07/13 03:09:10;;;;;;;11.60;6.95;;;;;;;;;;5013193;28;20033;-75
2022/07/13 03:11:36;;;;;;;9.50;6.72;;;;;;;;;;5033060;28;20029;-75
2022/07/13 03:14:02;;;;;;;9.25;6.60;;;;;;;;;;5032669;28;20034;-75
2022/07/13 03:16:28;;;;;;;9.73;5.75;;;;;;;;;;5032550;28;20028;-75
2022/07/13 03:18:54;;;;;;;12.65;6.38;;;;;;;;;;5015620;28;20060;-76
2022/07/13 03:21:20;;;;;;;8.98;6.50;;;;;;;;;;5012662;28;20054;-76
2022/07/13 03:23:46;;;;;;;11.00;6.55;;;;;;;;;;5012886;28;20413;-75
2022/07/13 03:26:12;;;;;;;11.30;6.38;;;;;;;;;;5012837;28;20064;-75
2022/07/13 03:28:38;;;;;;;9.60;6.35;;;;;;;;;;5012865;28;20049;-76
2022/07/13 03:31:05;;;;;;;10.43;6.90;;;;;;;;;;5012620;28;20097;-75
2022/07/13 03:33:31;;;;;;;10.95;6.43;;;;;;;;;;5012519;28;20630;-75
2022/07/13 03:35:57;;;;;;;12.57;5.93;;;;;;;;;;5012409;28;20414;-76
2022/07/13 03:38:23;;;;;;;10.18;5.97;;;;;;;;;;5012663;28;20022;-75
2022/07/13 03:40:49;;;;;;;13.02;6.50;;;;;;;;;;5012474;28;20026;-75
2022/07/13 03:43:15;;;;;;;9.07;6.43;;;;;;;;;;5012367;28;20026;-75
2022/07/13 03:45:42;;;;;;;8.43;6.53;;;;;;;;;;5012212;28;20030;-75
2022/07/13 03:48:08;;;;;;;8.55;5.90;;;;;;;;;;5012442;28;20030;-75
2022/07/13 03:50:34;;;;;;;8.55;5.95;;;;;;;;;;5012209;28;20029;-75
2022/07/13 03:53:00;;;;;;;7.72;5.97;;;;;;;;;;5012438;28;20109;-75
2022/07/13 03:55:26;;;;;;;10.07;5.82;;;;;;;;;;5012083;28;20165;-75
2022/07/13 03:57:52;;;;;;;15.43;6.70;;;;;;;;;;5012401;28;20025;-75
2022/07/13 04:00:19;;;;;;;9.38;5.45;;;;;;;;;;5012051;28;20018;-76
2022/07/13 04:02:45;;;;;;;10.07;6.10;;;;;;;;;;5012302;28;20141;-75
2022/07/13 04:05:11;;;;;;;10.30;6.05;;;;;;;;;;5011955;28;20116;-75
2022/07/13 04:07:37;;;;;;;8.38;5.97;;;;;;;;;;5012086;28;20029;-75
2022/07/13 04:10:03;;;;;;;9.48;6.63;;;;;;;;;;5019393;28;20462;-75
2022/07/13 04:12:29;;;;;;;13.50;7.03;;;;;;;;;;5031757;28;20033;-75
2022/07/13 04:14:56;;;;;;;14.30;7.03;;;;;;;;;;5030939;28;20022;-75
2022/07/13 04:17:22;;;;;;;21.17;7.07;;;;;;;;;;5027247;28;20029;-76
2022/07/13 04:19:48;;;;;;;9.93;6.85;;;;;;;;;;5010631;28;20037;-75
2022/07/13 04:22:14;;;;;;;14.65;7.40;;;;;;;;;;5011888;28;20077;-75
2022/07/13 04:24:40;;;;;;;12.75;7.38;;;;;;;;;;5011961;28;20034;-76
2022/07/13 04:27:06;;;;;;;14.30;7.60;;;;;;;;;;5010654;28;20376;-75
2022/07/13 04:29:32;;;;;;;10.95;7.40;;;;;;;;;;5011979;28;20098;-75
2022/07/13 04:31:58;;;;;;;10.82;7.60;;;;;;;;;;5011559;28;20054;-75
2022/07/13 04:34:24;;;;;;;12.48;7.10;;;;;;;;;;5010399;28;20145;-76
2022/07/13 04:36:51;;;;;;;19.10;7.28;;;;;;;;;;5010359;28;20148;-76
2022/07/13 04:39:17;;;;;;;10.93;7.70;;;;;;;;;;5011665;28;20026;-75
2022/07/13 04:41:43;;;;;;;10.05;7.80;;;;;;;;;;5011799;28;20423;-75
2022/07/13 04:44:09;;;;;;;15.50;7.75;;;;;;;;;;5011845;28;20079;-75
2022/07/13 04:46:35;;;;;;;13.68;7.50;;;;;;;;;;5011436;28;20129;-75
2022/07/13 04:49:02;;;;;;;36.83;8.48;;;;;;;;;;5011637;28;20068;-75
2022/07/13 04:51:28;;;;;;;22.00;8.05;;;;;;;;;;5011503;28;20473;-76
2022/07/13 04:53:54;;;;;;;10.93;7.72;;;;;;;;;;5011653;28;20121;-75
2022/07/13 04:56:20;;;;;;;12.40;8.32;;;;;;;;;;5011624;28;20156;-76
2022/07/13 04:58:46;;;;;;;15.13;8.73;;;;;;;;;;5011751;28;20100;-75
2022/07/13 05:01:12;;;;;;;14.07;8.90;;;;;;;;;;5011492;28;20026;-75
2022/07/13 05:03:38;;;;;;;15.02;8.70;;;;;;;;;;5011641;28;20118;-76
2022/07/13 05:06:04;;;;;;;13.85;8.52;;;;;;;;;;5011418;28;20080;-75
2022/07/13 05:08:30;;;;;;;22.17;9.05;;;;;;;;;;5011850;28;20431;-75
2022/07/13 05:10:56;;;;;;;18.98;8.70;;;;;;;;;;5026331;28;20025;-75
2022/07/13 05:13:22;;;;;;;14.00;8.95;;;;;;;;;;5031348;28;20151;-76
2022/07/13 05:15:48;;;;;;;18.20;9.02;;;;;;;;;;5031092;28;20021;-75
2022/07/13 05:18:14;;;;;;;16.95;9.73;;;;;;;;;;5019894;28;20014;-75
2022/07/13 05:20:40;;;;;;;13.40;8.88;;;;;;;;;;5011362;28;20057;-76
2022/07/13 05:23:06;;;;;;;21.13;10.18;;;;;;;;;;5011600;28;20022;-75
2022/07/13 05:25:32;;;;;;;13.57;9.23;;;;;;;;;;5011778;28;20080;-75
2022/07/13 05:27:58;;;;;;;17.60;9.52;;;;;;;;;;5015012;28;20026;-75
2022/07/13 05:30:24;;;;;;;17.80;9.52;;;;;;;;;;5014801;28;20041;-76
2022/07/13 05:32:50;;;;;;;15.90;9.38;;;;;;;;;;5014735;28;20388;-75
2022/07/13 05:35:16;;;;;;;21.55;10.20;;;;;;;;;;5014645;28;20030;-75
2022/07/13 05:37:42;;;;;;;15.30;8.45;;;;;;;;;;5014876;28;20026;-75
2022/07/13 05:40:08;;;;;;;16.65;9.02;;;;;;;;;;5014764;28;20080;-75
2022/07/13 05:42:34;;;;;;;17.42;8.10;;;;;;;;;;5014775;28;20110;-75
2022/07/13 05:45:00;;;;;;;11.20;7.28;;;;;;;;;;5014472;28;20107;-76
2022/07/13 05:47:26;;;;;;;11.77;7.75;;;;;;;;;;5014672;28;20181;-75
2022/07/13 05:49:52;;;;;;;12.75;7.85;;;;;;;;;;5014505;28;20026;-75
2022/07/13 05:52:18;;;;;;;13.85;7.47;;;;;;;;;;5014436;28;20038;-75
2022/07/13 05:54:44;;;;;;;11.02;8.15;;;;;;;;;;5012948;28;20467;-75
2022/07/13 05:57:10;;;;;;;11.73;7.43;;;;;;;;;;5014413;28;20034;-76
2022/07/13 05:59:36;;;;;;;11.60;7.28;;;;;;;;;;5014443;28;20037;-76
2022/07/13 06:02:02;;;;;;;11.32;7.57;;;;;;;;;;5013085;28;20030;-75
2022/07/13 06:04:28;;;;;;;12.15;7.45;;;;;;;;;;5014243;28;20034;-75
2022/07/13 06:06:54;;;;;;;11.23;6.97;;;;;;;;;;5014036;28;20030;-75
2022/07/13 06:09:20;;;;;;;10.07;7.15;;;;;;;;;;5015537;28;20030;-75
2022/07/13 06:11:47;;;;;;;12.27;7.15;;;;;;;;;;5033880;28;20606;-75
2022/07/13 06:14:13;;;;;;;9.40;6.95;;;;;;;;;;5034024;28;20029;-75
2022/07/13 06:16:39;;;;;;;10.85;7.25;;;;;;;;;;5033691;28;20056;-75
2022/07/13 06:19:05;;;;;;;11.57;7.07;;;;;;;;;;5013722;28;20447;-75
2022/07/13 06:21:31;;;;;;;15.50;6.97;;;;;;;;;;5013912;28;20472;-76
2022/07/13 06:23:57;;;;;;;14.55;7.63;;;;;;;;;;5014045;28;20061;-75
2022/07/13 06:26:24;;;;;;;13.98;7.10;;;;;;;;;;5013839;28;20034;-75
2022/07/13 06:28:50;;;;;;;14.73;6.95;;;;;;;;;;5013944;28;20029;-75
2022/07/13 06:31:16;;;;;;;12.05;7.32;;;;;;;;;;5013736;28;20470;-76
2022/07/13 06:33:42;;;;;;;16.50;7.65;;;;;;;;;;5013458;28;20085;-75
2022/07/13 06:36:08;;;;;;;13.55;6.60;;;;;;;;;;5012899;28;20030;-76
2022/07/13 06:38:35;;;;;;;14.30;6.85;;;;;;;;;;5013542;28;20053;-75
2022/07/13 06:41:01;;;;;;;12.10;6.70;;;;;;;;;;5013620;28;20061;-76
2022/07/13 06:43:27;;;;;;;13.07;7.03;;;;;;;;;;5013565;28;20523;-76
2022/07/13 06:45:53;;;;;;;11.35;7.03;;;;;;;;;;5013277;28;20424;-75
2022/07/13 06:48:19;;;;;;;15.45;6.85;;;;;;;;;;5013479;28;20030;-76
2022/07/13 06:50:45;;;;;;;9.93;7.22;;;;;;;;;;5013178;28;20084;-75
2022/07/13 06:53:11;;;;;;;9.30;7.00;;;;;;;;;;5013447;28;20037;-76
2022/07/13 06:55:37;;;;;;;13.98;7.53;;;;;;;;;;5013180;28;20022;-75
2022/07/13 06:58:03;;;;;;;10.30;6.80;;;;;;;;;;5011990;28;20101;-76
2022/07/13 07:00:29;;;;;;;11.00;7.30;;;;;;;;;;5013042;28;20106;-75
2022/07/13 07:02:55;;;;;;;13.65;6.90;;;;;;;;;;5013252;28;20022;-75
2022/07/13 07:05:21;;;;;;;11.52;7.25;;;;;;;;;;5013008;28;20038;-75
2022/07/13 07:07:47;;;;;;;12.65;7.18;;;;;;;;;;5013213;28;20472;-75
2022/07/13 07:10:13;;;;;;;13.38;7.13;;;;;;;;;;5021699;28;20056;-75
2022/07/13 07:12:40;;;;;;;12.85;7.25;;;;;;;;;;5032812;28;20029;-75
2022/07/13 07:15:06;;;;;;;10.07;7.18;;;;;;;;;;5032460;28;20108;-76
2022/07/13 07:17:32;;;;;;;10.45;6.93;;;;;;;;;;5026863;28;20025;-75
2022/07/13 07:20:06;;;;;;;9.70;6.72;;;;;;;;;;5012888;28;20389;-76
2022/07/13 07:22:32;;;;;;;16.13;8.27;;;;;;;;;;5009666;28;20105;-76
2022/07/13 07:24:58;;;;;;;11.77;7.20;;;;;;;;;;5002800;28;20160;-76
2022/07/13 07:27:24;;;;;;;11.32;6.75;;;;;;;;;;5003635;28;20018;-76
2022/07/13 07:29:50;;;;;;;10.02;6.40;;;;;;;;;;5001331;28;20030;-76
2022/07/13 07:32:16;;;;;;;8.93;6.22;;;;;;;;;;5000756;28;20034;-76
2022/07/13 07:34:42;;;;;;;11.82;6.32;;;;;;;;;;5003407;28;20033;-77
2022/07/13 07:37:08;;;;;;;16.58;6.53;;;;;;;;;;5003472;28;20022;-76
2022/07/13 07:39:36;;;;;;;13.50;6.13;;;;;;;;;;5002371;28;20025;-76
2022/07/13 07:42:02;;;;;;;8.85;5.85;;;;;;;;;;5004138;28;20105;-77
2022/07/13 07:44:29;;;;;;;11.15;6.40;;;;;;;;;;5003223;28;20026;-76
2022/07/13 07:46:55;;;;;;;10.35;6.72;;;;;;;;;;5003170;28;20101;-76
2022/07/13 07:49:22;;;;;;;9.32;6.40;;;;;;;;;;5001287;28;20175;-76
2022/07/13 07:51:48;;;;;;;12.43;6.45;;;;;;;;;;5001172;28;20026;-77
2022/07/13 07:54:14;;;;;;;10.38;5.93;;;;;;;;;;5003972;28;20042;-76
2022/07/13 07:56:40;;;;;;;9.98;6.57;;;;;;;;;;4999989;28;20022;-76
2022/07/13 07:59:06;;;;;;;11.57;6.70;;;;;;;;;;5003623;28;20029;-76
2022/07/13 08:01:32;;;;;;;11.52;6.45;;;;;;;;;;5002312;28;20054;-76
2022/07/13 08:03:58;;;;;;;15.25;6.35;;;;;;;;;;5003182;28;20080;-76
2022/07/13 08:06:24;;;;;;;12.27;6.30;;;;;;;;;;5002787;28;20022;-76
2022/07/13 08:08:50;;;;;;;10.80;5.82;;;;;;;;;;5001373;28;20022;-76
2022/07/13 08:11:17;;;;;;;12.70;5.88;;;;;;;;;;5000942;28;20488;-76
2022/07/13 08:13:44;;;;;;;15.25;6.75;;;;;;;;;;5014744;28;20049;-75
2022/07/13 08:16:10;;;;;;;15.07;6.30;;;;;;;;;;5031575;28;20541;-75
2022/07/13 08:18:37;;;;;;;11.48;5.70;;;;;;;;;;5017215;28;20025;-75
2022/07/13 08:21:03;;;;;;;14.10;6.25;;;;;;;;;;5011812;28;20022;-75
2022/07/13 08:26:14;;;;;;;13.32;6.10;;;;;;;;;;5011932;28;20041;-74
2022/07/13 08:28:40;;;;;;;17.08;6.15;;;;;;;;;;5010514;28;20030;-75
2022/07/13 08:31:06;;;;;;;12.15;6.15;;;;;;;;;;5011923;28;20030;-75
2022/07/13 08:39:02;;;;;;;10.88;5.82;;;;;;;;;;5011720;28;20076;-74
2022/07/13 08:41:29;;;;;;;9.90;5.80;;;;;;;;;;5011866;28;20048;-75
2022/07/13 08:43:55;;;;;;;10.30;6.60;;;;;;;;;;5011904;28;20054;-73
2022/07/13 08:46:22;;;;;;;13.05;6.03;;;;;;;;;;5011458;28;20080;-73
2022/07/13 08:48:50;;;;;;;9.45;5.80;;;;;;;;;;5010451;28;20088;-72
2022/07/13 08:51:20;;;;;;;9.85;5.82;;;;;;;;;;5011658;28;20034;-74
2022/07/13 08:53:46;;;;;;;12.23;6.05;;;;;;;;;;5006095;28;20100;-76
2022/07/13 08:56:13;;;;;;;7.63;4.80;;;;;;;;;;5010476;28;20030;-75
2022/07/13 08:58:39;;;;;;;15.63;4.78;;;;;;;;;;5010094;28;20085;-76
2022/07/13 09:01:05;;;;;;;8.30;4.65;;;;;;;;;;5013352;28;20033;-76
2022/07/13 09:03:34;;;;;;;9.07;3.72;;;;;;;;;;5014284;28;20026;-74
2022/07/13 09:06:01;;;;;;;7.63;3.40;;;;;;;;;;5015101;28;20526;-74
2022/07/13 09:08:27;;;;;;;11.38;3.75;;;;;;;;;;5015373;28;20029;-75
2022/07/13 09:10:57;;;;;;;11.55;3.80;;;;;;;;;;5014499;28;20453;-75
2022/07/13 09:13:33;;;;;;;8.82;3.95;;;;;;;;;;5018271;28;20033;-75
2022/07/13 09:16:21;;;;;;;7.70;3.30;;;;;;;;;;5034252;28;20025;-75
2022/07/13 09:18:54;;;;;;;8.10;2.55;;;;;;;;;;5018212;28;20029;-76
2022/07/13 09:21:21;;;;;;;8.68;2.88;;;;;;;;;;5014338;28;20097;-75
2022/07/13 09:23:49;;;;;;;7.13;2.72;;;;;;;;;;5014319;28;20022;-75
2022/07/13 09:26:16;;;;;;;3.75;2.30;;;;;;;;;;5013496;28;20045;-75
2022/07/13 09:28:45;;;;;;;7.18;2.85;;;;;;;;;;5013657;28;20026;-75
2022/07/13 09:31:12;;;;;;;3.83;2.28;;;;;;;;;;5014697;28;20022;-75
2022/07/13 09:33:39;;;;;;;6.97;2.78;;;;;;;;;;5013443;28;20137;-75
2022/07/13 09:36:25;;;;;;;5.78;2.05;;;;;;;;;;5014622;28;20022;-75
2022/07/13 09:38:52;;;;;;;5.22;2.20;;;;;;;;;;5014841;28;20105;-75
2022/07/13 09:41:18;;;;;;;6.10;2.65;;;;;;;;;;5014796;28;20364;-75
2022/07/13 09:46:55;;;;;;;5.32;2.13;;;;;;;;;;5014737;28;20045;-75
2022/07/13 09:49:44;;;;;;;7.63;1.88;;;;;;;;;;5014560;28;20034;-75
2022/07/13 09:52:16;;;;;;;7.25;2.08;;;;;;;;;;5014516;28;20026;-75
2022/07/13 09:54:43;;;;;;;2.70;1.75;;;;;;;;;;5014533;28;20062;-75
2022/07/13 09:57:11;;;;;;;6.40;1.98;;;;;;;;;;5014487;28;20029;-75
2022/07/13 09:59:38;;;;;;;3.75;1.55;;;;;;;;;;5014414;28;20017;-76
2022/07/13 10:02:04;;;;;;;3.65;1.90;;;;;;;;;;5014134;28;20384;-76
2022/07/13 10:04:32;;;;;;;5.57;1.90;;;;;;;;;;5014219;28;20109;-76
2022/07/13 10:06:59;;;;;;;4.05;1.65;;;;;;;;;;5014251;28;20034;-76
2022/07/13 10:11:51;;;;;;;8.13;1.85;;;;;;;;;;5012918;28;20468;-76
2022/07/13 10:14:18;;;;;;;7.15;1.60;;;;;;;;;;5023111;28;20476;-76
2022/07/13 10:16:44;;;;;;;3.75;1.33;;;;;;;;;;5033701;28;20093;-76
2022/07/13 10:19:10;;;;;;;5.50;1.65;;;;;;;;;;5014694;28;20084;-76
2022/07/13 10:21:44;;;;;;;3.90;1.50;;;;;;;;;;5013901;28;20057;-76
2022/07/13 10:24:17;;;;;;;3.92;1.45;;;;;;;;;;5014060;28;20152;-76
2022/07/13 10:26:43;;;;;;;2.97;1.40;;;;;;;;;;5013566;28;20487;-76
2022/07/13 10:29:10;;;;;;;2.75;1.30;;;;;;;;;;5013915;28;20465;-76
2022/07/13 10:31:36;;;;;;;3.53;1.40;;;;;;;;;;5013603;28;20559;-76
2022/07/13 10:34:03;;;;;;;2.67;1.30;;;;;;;;;;5013553;28;20124;-76
2022/07/13 10:36:49;;;;;;;8.00;1.45;;;;;;;;;;5013616;28;20048;-76
2022/07/13 10:39:16;;;;;;;4.00;1.33;;;;;;;;;;5013736;28;20302;-76
2022/07/13 10:41:57;;;;;;;3.58;1.38;;;;;;;;;;5013496;28;20105;-76
2022/07/13 10:44:35;;;;;;;3.25;1.20;;;;;;;;;;5013655;28;20029;-74
2022/07/13 10:47:01;;;;;;;2.70;1.25;;;;;;;;;;4993840;28;20027;-73
2022/07/13 10:49:34;;;;;;;2.03;1.38;;;;;;;;;;4993877;28;20113;-73
2022/07/13 10:52:26;;;;;;;4.40;1.30;;;;;;;;;;4993880;28;20038;-74
2022/07/13 10:54:52;;;;;;;;;;;;;;;;;;4994139;28;20032;-73
2022/07/13 10:57:26;;;;;;;5.72;1.15;;;;;;;;;;4993884;28;20279;-73
2022/07/13 11:00:00;;;;;;;9.27;1.33;;;;;;;;;;5004666;28;20030;-73
2022/07/13 11:02:45;;;;;;;6.25;1.25;;;;;;;;;;5002088;28;20480;-73
2022/07/13 11:05:12;;;;;;;3.80;1.38;;;;;;;;;;5006628;28;20144;-73
2022/07/13 11:07:43;;;;;;;1.40;0.95;;;;;;;;;;5002299;28;20415;-72
2022/07/13 11:10:15;;;;;;;2.53;1.45;;;;;;;;;;5001125;28;20146;-73
2022/07/13 11:12:55;;;;;;;3.03;1.13;;;;;;;;;;5001873;28;20049;-72
2022/07/13 11:15:21;;;;;;;6.72;1.33;;;;;;;;;;5001484;28;20133;-72
2022/07/13 11:17:54;;;;;;;11.93;1.08;;;;;;;;;;5003360;28;20018;-73
2022/07/13 11:20:21;;;;;;;2.88;1.40;;;;;;;;;;5003613;28;20097;-73
2022/07/13 11:25:46;;;;;;;2.15;1.30;;;;;;;;;;4993420;28;20133;-73
2022/07/13 11:28:12;;;;;;;2.28;1.40;;;;;;;;;;4993158;28;20034;-74
2022/07/13 11:30:43;;;;;;;2.80;1.20;;;;;;;;;;4992810;28;20018;-75
2022/07/13 11:33:11;;;;;;;2.00;1.25;;;;;;;;;;4993092;28;20058;-73
2022/07/13 11:35:37;;;;;;;4.30;1.20;;;;;;;;;;5006832;28;20038;-75
2022/07/13 11:38:04;;;;;;;5.80;1.50;;;;;;;;;;5008030;28;20026;-75
2022/07/13 11:40:31;;;;;;;4.18;1.40;;;;;;;;;;4992851;28;20481;-75
2022/07/13 11:43:00;;;;;;;3.22;1.50;;;;;;;;;;4993004;28;20033;-74
2022/07/13 11:45:28;;;;;;;3.30;1.38;;;;;;;;;;5004313;28;20029;-73
2022/07/13 11:48:04;;;;;;;2.72;1.38;;;;;;;;;;5014288;28;20416;-73
2022/07/13 11:50:42;;;;;;;4.45;1.42;;;;;;;;;;5023816;28;20487;-73
2022/07/13 11:53:10;;;;;;;6.60;1.92;;;;;;;;;;5026231;28;20022;-70
2022/07/13 11:55:36;;;;;;;4.05;1.58;;;;;;;;;;5017923;28;20030;-70
2022/07/13 11:58:03;;;;;;;10.00;1.67;;;;;;;;;;5020660;28;20053;-70
2022/07/13 12:00:32;;;;;;;3.10;1.40;;;;;;;;;;5012774;28;20057;-71
2022/07/13 12:02:58;;;;;;;5.32;1.48;;;;;;;;;;5009781;28;20125;-70
2022/07/13 12:05:25;;;;;;;7.50;1.48;;;;;;;;;;5010012;28;20029;-70
2022/07/13 12:08:01;;;;;;;4.85;1.50;;;;;;;;;;5011378;28;20102;-70
2022/07/13 12:10:28;;;;;;;3.45;1.27;;;;;;;;;;5010956;28;20028;-71
2022/07/13 12:12:54;;;;;;;2.08;1.15;;;;;;;;;;5011545;28;20101;-71
2022/07/13 12:15:20;;;;;;;3.33;1.08;;;;;;;;;;5011033;28;20021;-70
2022/07/13 12:17:52;;;;;;;4.38;1.40;;;;;;;;;;5012965;28;20105;-71
2022/07/13 12:20:19;;;;;;;1.70;1.00;;;;;;;;;;5010957;28;20022;-71
2022/07/13 12:22:50;;;;;;;4.63;1.50;;;;;;;;;;5011529;28;20029;-73
2022/07/13 12:25:31;;;;;;;3.53;1.25;;;;;;;;;;5010864;28;20030;-70
2022/07/13 12:27:59;;;;;;;6.40;1.30;;;;;;;;;;5011422;28;20058;-71
2022/07/13 12:30:25;;;;;;;3.13;1.50;;;;;;;;;;5010455;28;20085;-70
2022/07/13 12:33:01;;;;;;;2.60;1.40;;;;;;;;;;5010968;28;20050;-71
2022/07/13 12:35:37;;;;;;;8.88;1.30;;;;;;;;;;5012457;28;20341;-71
2022/07/13 12:38:14;;;;;;;4.28;1.48;;;;;;;;;;5016097;28;20026;-71
2022/07/13 12:40:43;;;;;;;1.77;1.23;;;;;;;;;;5014207;28;20029;-70
2022/07/13 12:43:19;;;;;;;10.25;1.30;;;;;;;;;;5016418;28;20029;-70
2022/07/13 12:45:46;;;;;;;3.22;1.80;;;;;;;;;;5014362;28;20128;-71
2022/07/13 12:48:13;;;;;;;4.03;1.60;;;;;;;;;;5015551;28;20030;-71
2022/07/13 12:50:39;;;;;;;3.20;1.60;;;;;;;;;;5018425;28;20029;-71
2022/07/13 12:53:08;;;;;;;3.85;1.40;;;;;;;;;;5014192;28;20026;-71
2022/07/13 12:56:04;;;;;;;5.00;1.48;;;;;;;;;;5012981;28;20026;-71
2022/07/13 12:58:40;;;;;;;3.00;1.35;;;;;;;;;;4953857;28;20118;-71
2022/07/13 13:01:06;;;;;;;6.28;2.53;;;;;;;;;;4937545;29;20054;-71
2022/07/13 13:03:32;;;;;;;5.10;1.58;;;;;;;;;;4959779;28;20050;-71
2022/07/13 13:05:58;;;;;;;1.92;1.30;;;;;;;;;;4953008;29;20412;-71
2022/07/13 13:08:24;;;;;;;3.80;1.50;;;;;;;;;;4952880;28;20035;-71
2022/07/13 13:10:51;;;;;;;2.75;1.55;;;;;;;;;;4954009;29;20047;-71
2022/07/13 13:13:17;;;;;;;2.85;1.00;;;;;;;;;;4938117;29;20055;-71
2022/07/13 13:15:44;;;;;;;1.88;1.00;;;;;;;;;;4952694;28;20044;-72
2022/07/13 13:18:10;;;;;;;2.55;1.27;;;;;;;;;;4951620;28;20102;-72
2022/07/13 13:20:40;;;;;;;3.45;1.33;;;;;;;;;;4951967;28;20039;-73
2022/07/13 13:23:06;;;;;;;11.20;1.67;;;;;;;;;;4954034;29;20024;-72
2022/07/13 13:25:34;;;;;;;2.67;1.30;;;;;;;;;;4952187;28;20169;-72
2022/07/13 13:28:00;;;;;;;2.05;1.25;;;;;;;;;;4953312;29;20047;-71
2022/07/13 13:30:44;;;;;;;2.42;1.40;;;;;;;;;;4936192;29;20118;-71
2022/07/13 13:33:11;;;;;;;2.63;1.30;;;;;;;;;;4934393;28;20073;-71
2022/07/13 13:35:37;;;;;;;2.42;1.35;;;;;;;;;;5013191;28;20037;-71
2022/07/13 13:38:03;;;;;;;4.40;1.42;;;;;;;;;;5020025;28;20029;-72
2022/07/13 13:40:30;;;;;;;4.50;1.35;;;;;;;;;;5015634;28;20060;-71
2022/07/13 13:42:56;;;;;;;7.97;1.23;;;;;;;;;;5013664;28;20108;-71
2022/07/13 13:45:22;;;;;;;5.47;1.20;;;;;;;;;;5006343;28;20496;-71
2022/07/13 13:47:48;;;;;;;4.03;1.27;;;;;;;;;;5014215;28;20034;-72
2022/07/13 13:50:15;;;;;;;3.20;1.20;;;;;;;;;;5006599;28;20543;-72
2022/07/13 13:52:41;;;;;;;3.00;1.23;;;;;;;;;;5017534;28;20388;-72
2022/07/13 13:55:08;;;;;;;2.35;1.10;;;;;;;;;;5003589;28;20052;-72
2022/07/13 13:57:34;;;;;;;4.38;1.30;;;;;;;;;;5013487;28;20041;-72
2022/07/13 14:00:00;;;;;;;6.85;1.48;;;;;;;;;;5015850;28;20022;-72
2022/07/13 14:02:26;;;;;;;6.05;1.50;;;;;;;;;;5015524;28;20022;-72
2022/07/13 14:04:53;;;;;;;3.50;1.27;;;;;;;;;;5016265;28;20060;-72
2022/07/13 14:07:19;;;;;;;6.18;1.52;;;;;;;;;;5020523;28;20028;-71
2022/07/13 14:09:47;;;;;;;5.55;1.20;;;;;;;;;;5014466;28;20040;-71
2022/07/13 14:12:13;;;;;;;4.78;1.40;;;;;;;;;;5014150;28;20164;-71
2022/07/13 14:14:39;;;;;;;4.78;1.50;;;;;;;;;;5016501;28;20049;-71
2022/07/13 14:17:05;;;;;;;6.20;1.70;;;;;;;;;;5013547;28;20395;-74
2022/07/13 14:19:31;;;;;;;5.30;1.50;;;;;;;;;;5015609;28;20365;-73
2022/07/13 14:21:58;;;;;;;5.03;2.03;;;;;;;;;;5018914;28;20026;-71
2022/07/13 14:24:24;;;;;;;3.45;1.50;;;;;;;;;;5012196;28;20037;-75
2022/07/13 14:26:50;;;;;;;3.13;1.75;;;;;;;;;;5018797;28;20364;-75
2022/07/13 14:29:17;;;;;;;3.33;1.50;;;;;;;;;;5011670;28;20030;-74
2022/07/13 14:31:43;;;;;;;4.10;1.60;;;;;;;;;;5014844;28;20030;-75
2022/07/13 14:34:10;;;;;;;3.88;1.55;;;;;;;;;;5014897;28;20046;-74
2022/07/13 14:36:38;;;;;;;3.63;1.38;;;;;;;;;;5014651;28;20030;-74
2022/07/13 14:39:04;;;;;;;6.40;1.50;;;;;;;;;;5012224;28;20053;-74
2022/07/13 14:41:30;;;;;;;5.82;1.90;;;;;;;;;;5013066;28;20105;-75
2022/07/13 14:43:56;;;;;;;2.20;1.40;;;;;;;;;;5013091;28;20030;-74
2022/07/13 14:46:25;;;;;;;5.65;1.98;;;;;;;;;;5010034;28;20030;-74
2022/07/13 14:48:51;;;;;;;2.92;1.92;;;;;;;;;;5010307;28;20026;-74
2022/07/13 14:51:17;;;;;;;4.03;1.88;;;;;;;;;;5012353;28;20037;-75
2022/07/13 14:53:44;;;;;;;10.32;3.00;;;;;;;;;;5010015;28;20117;-74